createdAt,value
2023-05-13T00:02:26.379Z,3.53
2023-05-13T00:04:53.395Z,4.20
2023-05-13T00:07:20.408Z,3.60
2023-05-13T00:09:47.386Z,3.13
2023-05-13T00:12:14.456Z,4.47
2023-05-13T00:14:41.469Z,3.85
2023-05-13T00:17:08.469Z,3.63
2023-05-13T00:19:35.519Z,3.90
2023-05-13T00:22:02.595Z,3.20
2023-05-13T00:24:29.606Z,3.92
2023-05-13T00:26:56.632Z,3.70
2023-05-13T00:29:23.737Z,4.00
2023-05-13T00:31:51.761Z,4.38
2023-05-13T00:34:19.357Z,4.18
2023-05-13T00:36:46.414Z,4.05
2023-05-13T00:39:13.600Z,3.30
2023-05-13T00:41:40.841Z,3.67
2023-05-13T00:44:07.847Z,3.00
2023-05-13T00:46:34.979Z,3.13
2023-05-13T00:49:04.287Z,3.70
2023-05-13T00:51:32.627Z,4.07
2023-05-13T00:53:59.906Z,3.90
2023-05-13T00:56:27.147Z,3.83
2023-05-13T00:58:54.210Z,3.92
2023-05-13T01:01:34.838Z,3.92
2023-05-13T01:04:20.594Z,3.88
2023-05-13T01:07:06.252Z,3.67
2023-05-13T01:09:55.181Z,3.58
2023-05-13T01:12:30.919Z,4.25
2023-05-13T01:15:10.353Z,3.38
2023-05-13T01:17:41.752Z,4.35
2023-05-13T01:20:10.035Z,3.83
2023-05-13T01:22:38.503Z,4.13
2023-05-13T01:25:06.650Z,4.30
2023-05-13T01:27:34.138Z,4.47
2023-05-13T01:30:03.487Z,4.28
2023-05-13T01:32:34.197Z,4.45
2023-05-13T01:35:02.418Z,4.30
2023-05-13T01:37:30.830Z,4.43
2023-05-13T01:39:58.191Z,4.18
2023-05-13T01:42:25.519Z,4.57
2023-05-13T01:44:53.664Z,5.22
2023-05-13T01:47:21.570Z,4.18
2023-05-13T01:49:48.713Z,3.92
2023-05-13T01:52:15.827Z,4.20
2023-05-13T01:54:42.840Z,4.65
2023-05-13T01:57:13.460Z,4.03
2023-05-13T01:59:40.641Z,4.03
2023-05-13T02:02:07.786Z,4.13
2023-05-13T02:04:34.980Z,4.13
2023-05-13T02:07:02.035Z,4.22
2023-05-13T02:09:31.159Z,3.88
2023-05-13T02:11:58.721Z,3.83
2023-05-13T02:14:26.171Z,4.22
2023-05-13T02:16:53.436Z,3.95
2023-05-13T02:19:21.782Z,4.10
2023-05-13T02:21:48.940Z,3.83
2023-05-13T02:24:16.952Z,3.63
2023-05-13T02:26:44.993Z,3.53
2023-05-13T02:29:12.041Z,3.67
2023-05-13T02:31:39.361Z,3.80
2023-05-13T02:34:06.466Z,3.50
2023-05-13T02:36:33.495Z,3.80
2023-05-13T02:39:00.985Z,3.38
2023-05-13T02:41:28.715Z,4.10
2023-05-13T02:43:55.856Z,3.63
2023-05-13T02:46:23.385Z,3.88
2023-05-13T02:48:50.548Z,3.22
2023-05-13T02:51:17.636Z,4.35
2023-05-13T02:53:44.753Z,3.78
2023-05-13T02:56:12.027Z,3.75
2023-05-13T02:58:39.021Z,3.90
2023-05-13T03:01:06.249Z,3.47
2023-05-13T03:03:33.466Z,3.58
2023-05-13T03:06:00.793Z,3.47
2023-05-13T03:08:27.798Z,5.38
2023-05-13T03:10:54.914Z,3.95
2023-05-13T03:13:21.958Z,3.78
2023-05-13T03:15:48.982Z,5.18
2023-05-13T03:18:16.054Z,3.83
2023-05-13T03:20:43.318Z,3.60
2023-05-13T03:23:10.450Z,4.00
2023-05-13T03:25:37.738Z,4.55
2023-05-13T03:28:04.896Z,3.92
2023-05-13T03:30:36.625Z,4.23
2023-05-13T03:33:07.717Z,4.45
2023-05-13T03:35:34.896Z,3.90
2023-05-13T03:38:02.366Z,3.83
2023-05-13T03:40:30.526Z,3.78
2023-05-13T03:42:57.662Z,3.72
2023-05-13T03:45:24.988Z,3.85
2023-05-13T03:47:56.276Z,4.28
2023-05-13T03:50:24.949Z,3.78
2023-05-13T03:52:52.841Z,3.80
2023-05-13T03:55:21.425Z,3.20
2023-05-13T03:57:49.483Z,3.90
2023-05-13T04:00:18.945Z,3.50
2023-05-13T04:02:48.385Z,3.53
2023-05-13T04:05:15.774Z,3.67
2023-05-13T04:07:42.849Z,3.70
2023-05-13T04:10:12.337Z,3.67
2023-05-13T04:12:40.905Z,3.00
2023-05-13T04:15:08.456Z,3.80
2023-05-13T04:17:35.618Z,3.00
2023-05-13T04:20:02.944Z,3.22
2023-05-13T04:22:30.594Z,3.40
2023-05-13T04:24:57.642Z,4.72
2023-05-13T04:27:24.640Z,4.05
2023-05-13T04:29:56.253Z,3.60
2023-05-13T04:32:23.767Z,4.10
2023-05-13T04:34:55.026Z,3.90
2023-05-13T04:37:23.912Z,4.18
2023-05-13T04:39:53.739Z,3.55
2023-05-13T04:42:23.029Z,3.72
2023-05-13T04:44:50.044Z,3.55
2023-05-13T04:47:19.079Z,4.57
2023-05-13T04:49:46.132Z,3.50
2023-05-13T04:52:13.768Z,3.67
2023-05-13T04:54:40.918Z,3.97
2023-05-13T04:57:08.556Z,4.10
2023-05-13T04:59:36.344Z,3.95
2023-05-13T05:02:03.738Z,3.50
2023-05-13T05:04:30.912Z,3.95
2023-05-13T05:06:58.367Z,3.40
2023-05-13T05:09:25.426Z,4.13
2023-05-13T05:11:53.618Z,4.68
2023-05-13T05:14:23.474Z,3.42
2023-05-13T05:16:51.190Z,3.30
2023-05-13T05:19:23.871Z,3.60
2023-05-13T05:21:52.065Z,2.97
2023-05-13T05:24:19.480Z,3.67
2023-05-13T05:26:47.839Z,4.38
2023-05-13T05:29:15.184Z,3.30
2023-05-13T05:31:44.162Z,3.67
2023-05-13T05:34:11.930Z,3.15
2023-05-13T05:36:38.983Z,3.20
2023-05-13T05:39:06.569Z,3.00
2023-05-13T05:41:36.332Z,3.58
2023-05-13T05:44:03.481Z,3.65
2023-05-13T05:46:31.498Z,3.63
2023-05-13T05:48:59.295Z,3.00
2023-05-13T05:51:26.348Z,2.78
2023-05-13T05:53:53.378Z,3.95
2023-05-13T05:56:21.209Z,3.47
2023-05-13T05:58:48.384Z,3.08
2023-05-13T06:01:16.817Z,3.80
2023-05-13T06:03:45.711Z,4.78
2023-05-13T06:06:12.955Z,3.53
2023-05-13T06:08:40.244Z,3.65
2023-05-13T06:11:08.242Z,3.67
2023-05-13T06:13:35.451Z,3.67
2023-05-13T06:16:02.563Z,3.53
2023-05-13T06:18:30.094Z,3.33
2023-05-13T06:20:57.260Z,3.42
2023-05-13T06:23:24.275Z,3.40
2023-05-13T06:25:52.073Z,2.95
2023-05-13T06:28:19.170Z,2.83
2023-05-13T06:30:46.291Z,3.83
2023-05-13T06:33:13.538Z,2.92
2023-05-13T06:35:40.633Z,2.95
2023-05-13T06:38:10.066Z,3.15
2023-05-13T06:40:37.312Z,3.15
2023-05-13T06:43:05.235Z,3.08
2023-05-13T06:45:37.505Z,3.45
2023-05-13T06:48:04.919Z,3.67
2023-05-13T06:50:31.976Z,3.50
2023-05-13T06:52:59.137Z,3.40
2023-05-13T06:55:26.241Z,3.60
2023-05-13T06:57:53.257Z,3.35
2023-05-13T07:00:20.893Z,3.40
2023-05-13T07:02:48.135Z,3.60
2023-05-13T07:05:15.388Z,3.35
2023-05-13T07:07:43.296Z,3.40
2023-05-13T07:10:10.848Z,3.35
2023-05-13T07:12:37.954Z,3.15
2023-05-13T07:15:05.911Z,2.35
2023-05-13T07:17:33.002Z,3.00
2023-05-13T07:20:00.161Z,3.60
2023-05-13T07:22:27.839Z,3.00
2023-05-13T07:24:55.149Z,3.33
2023-05-13T07:27:22.253Z,3.22
2023-05-13T07:29:49.318Z,3.47
2023-05-13T07:32:16.396Z,3.30
2023-05-13T07:34:43.873Z,3.03
2023-05-13T07:37:11.130Z,3.30
2023-05-13T07:40:35.878Z,3.53
2023-05-13T07:43:02.953Z,3.97
2023-05-13T07:45:29.974Z,5.15
2023-05-13T07:47:56.997Z,3.65
2023-05-13T07:50:24.261Z,3.63
2023-05-13T07:52:51.873Z,3.53
2023-05-13T07:55:19.121Z,4.20
2023-05-13T07:58:11.472Z,3.60
2023-05-13T08:00:38.740Z,3.20
2023-05-13T08:03:06.017Z,2.97
2023-05-13T08:05:33.031Z,3.20
2023-05-13T08:08:00.312Z,3.22
2023-05-13T08:10:27.458Z,3.10
2023-05-13T08:12:57.566Z,3.30
2023-05-13T08:15:25.860Z,3.20
2023-05-13T08:17:54.050Z,3.40
2023-05-13T08:20:23.019Z,2.80
2023-05-13T08:22:50.352Z,2.13
2023-05-13T08:25:17.378Z,1.73
2023-05-13T08:27:44.369Z,2.05
2023-05-13T08:30:11.761Z,2.42
2023-05-13T08:32:38.759Z,2.30
2023-05-13T08:35:06.334Z,2.58
2023-05-13T08:37:33.376Z,2.25
2023-05-13T08:40:02.381Z,1.98
2023-05-13T08:42:33.284Z,2.35
2023-05-13T08:45:07.528Z,2.58
2023-05-13T08:47:58.330Z,2.10
2023-05-13T08:50:25.847Z,1.83
2023-05-13T08:52:53.967Z,2.53
2023-05-13T08:55:22.391Z,1.27
2023-05-13T08:57:50.441Z,1.20
2023-05-13T09:00:19.371Z,1.83
2023-05-13T09:02:48.828Z,1.35
2023-05-13T09:05:16.990Z,1.88
2023-05-13T09:07:44.257Z,2.40
2023-05-13T09:10:11.421Z,1.80
2023-05-13T09:12:51.814Z,2.05
2023-05-13T09:15:20.148Z,1.65
2023-05-13T09:17:50.668Z,1.63
2023-05-13T09:20:19.503Z,2.03
2023-05-13T09:22:48.935Z,1.92
2023-05-13T09:25:18.765Z,2.17
2023-05-13T09:27:48.015Z,1.88
2023-05-13T09:30:15.356Z,1.70
2023-05-13T09:32:43.020Z,1.65
2023-05-13T09:35:17.712Z,2.20
2023-05-13T09:37:46.462Z,2.17
2023-05-13T09:40:16.715Z,2.33
2023-05-13T09:42:45.624Z,1.38
2023-05-13T09:45:14.332Z,1.63
2023-05-13T09:47:41.969Z,1.90
2023-05-13T09:50:11.506Z,2.00
2023-05-13T09:52:38.863Z,1.50
2023-05-13T09:55:09.237Z,1.73
2023-05-13T09:57:37.871Z,2.08
2023-05-13T10:00:06.460Z,1.83
2023-05-13T10:02:40.168Z,1.48
2023-05-13T10:05:08.997Z,1.98
2023-05-13T10:07:37.893Z,1.88
2023-05-13T10:10:08.537Z,2.10
2023-05-13T10:12:38.054Z,1.65
2023-05-13T10:15:05.816Z,1.70
2023-05-13T10:17:33.361Z,1.50
2023-05-13T10:20:01.704Z,1.95
2023-05-13T10:22:34.659Z,1.83
2023-05-13T10:25:05.002Z,1.38
2023-05-13T10:27:33.529Z,1.88
2023-05-13T10:30:03.707Z,2.08
2023-05-13T10:32:31.601Z,2.05
2023-05-13T10:35:13.560Z,1.98
2023-05-13T10:38:07.496Z,2.00
2023-05-13T10:40:40.557Z,2.20
2023-05-13T10:43:26.014Z,1.80
2023-05-13T10:46:05.534Z,1.63
2023-05-13T10:48:49.404Z,2.00
2023-05-13T10:51:22.569Z,1.90
2023-05-13T10:53:55.600Z,1.40
2023-05-13T10:56:24.538Z,1.90
2023-05-13T10:59:03.370Z,1.48
2023-05-13T11:01:34.851Z,1.60
2023-05-13T11:04:05.635Z,1.90
2023-05-13T11:06:37.480Z,1.65
2023-05-13T11:09:11.760Z,2.50
2023-05-13T11:11:39.337Z,1.80
2023-05-13T11:14:26.025Z,1.50
2023-05-13T11:17:00.250Z,1.40
2023-05-13T11:19:38.298Z,1.58
2023-05-13T11:22:13.662Z,1.67
2023-05-13T11:24:41.594Z,0.90
2023-05-13T11:27:19.828Z,0.90
2023-05-13T11:29:54.985Z,1.48
2023-05-13T11:32:53.309Z,1.40
2023-05-13T11:35:28.901Z,1.73
2023-05-13T11:37:59.991Z,1.67
2023-05-13T11:40:32.835Z,1.88
2023-05-13T11:43:01.198Z,2.00
2023-05-13T11:45:29.775Z,1.55
2023-05-13T11:47:57.808Z,1.60
2023-05-13T11:50:35.377Z,1.73
2023-05-13T11:53:02.676Z,1.50
2023-05-13T11:55:32.006Z,1.52
2023-05-13T11:57:59.627Z,1.83
2023-05-13T12:00:27.419Z,3.38
2023-05-13T12:02:55.042Z,2.78
2023-05-13T12:05:22.916Z,1.75
2023-05-13T12:07:50.631Z,1.33
2023-05-13T12:10:17.813Z,1.08
2023-05-13T12:12:46.114Z,1.45
2023-05-13T12:15:18.653Z,1.00
2023-05-13T12:17:46.708Z,1.40
2023-05-13T12:20:18.168Z,0.93
2023-05-13T12:22:45.125Z,1.10
2023-05-13T12:25:40.374Z,1.50
2023-05-13T12:28:20.625Z,1.30
2023-05-13T12:30:53.890Z,1.27
2023-05-13T12:33:23.233Z,1.10
2023-05-13T12:35:52.868Z,1.25
2023-05-13T12:38:22.122Z,1.30
2023-05-13T12:40:50.221Z,1.30
2023-05-13T12:43:19.454Z,1.45
2023-05-13T12:45:48.175Z,1.30
2023-05-13T12:48:15.863Z,1.58
2023-05-13T12:50:42.932Z,1.90
2023-05-13T12:53:10.000Z,1.88
2023-05-13T12:55:39.953Z,1.42
2023-05-13T12:58:10.788Z,1.55
2023-05-13T13:00:38.096Z,1.42
2023-05-13T13:03:05.876Z,1.60
2023-05-13T13:05:33.382Z,1.65
2023-05-13T13:08:05.210Z,1.73
2023-05-13T13:10:32.488Z,1.30
2023-05-13T13:12:59.505Z,1.40
2023-05-13T13:15:26.697Z,1.70
2023-05-13T13:17:53.810Z,1.90
2023-05-13T13:20:20.934Z,1.70
2023-05-13T13:22:48.034Z,1.58
2023-05-13T13:25:15.103Z,1.27
2023-05-13T13:27:42.079Z,1.15
2023-05-13T13:30:09.446Z,1.52
2023-05-13T13:32:36.528Z,1.42
2023-05-13T13:35:05.460Z,1.17
2023-05-13T13:37:32.538Z,1.40
2023-05-13T13:39:59.634Z,1.60
2023-05-13T13:42:36.817Z,1.50
2023-05-13T13:45:11.426Z,1.20
2023-05-13T13:47:38.596Z,1.17
2023-05-13T13:50:06.408Z,0.80
2023-05-13T13:52:33.523Z,1.20
2023-05-13T13:55:00.692Z,1.10
2023-05-13T13:57:27.851Z,1.05
2023-05-13T13:59:54.865Z,1.00
2023-05-13T14:02:21.994Z,1.13
2023-05-13T14:04:49.023Z,1.20
2023-05-13T14:07:16.198Z,0.80
2023-05-13T14:09:43.210Z,0.82
2023-05-13T14:12:10.263Z,1.08
2023-05-13T14:14:37.239Z,0.88
2023-05-13T14:17:04.440Z,0.77
2023-05-13T14:19:31.442Z,0.80
2023-05-13T14:21:58.495Z,0.90
2023-05-13T14:24:27.021Z,0.52
2023-05-13T14:26:54.190Z,1.00
2023-05-13T14:29:21.252Z,0.90
2023-05-13T14:31:48.613Z,1.17
2023-05-13T14:34:16.471Z,0.88
2023-05-13T14:36:43.554Z,1.05
2023-05-13T14:39:10.773Z,1.00
2023-05-13T14:41:37.952Z,1.10
2023-05-13T14:44:04.939Z,0.88
2023-05-13T14:46:35.391Z,0.80
2023-05-13T14:49:02.497Z,0.95
2023-05-13T14:51:29.694Z,1.02
2023-05-13T14:53:56.844Z,1.35
2023-05-13T14:56:25.041Z,1.08
2023-05-13T14:58:53.160Z,1.38
2023-05-13T15:01:20.262Z,1.40
2023-05-13T15:03:47.342Z,1.48
2023-05-13T15:06:14.541Z,1.20
2023-05-13T15:08:41.544Z,1.73
2023-05-13T15:11:08.590Z,1.70
2023-05-13T15:13:36.861Z,1.58
2023-05-13T15:16:04.364Z,1.48
2023-05-13T15:18:31.642Z,1.50
2023-05-13T15:20:58.724Z,1.65
2023-05-13T15:23:25.797Z,1.50
2023-05-13T15:25:52.849Z,1.35
2023-05-13T15:28:19.848Z,1.40
2023-05-13T15:30:46.862Z,1.35
2023-05-13T15:33:13.910Z,1.58
2023-05-13T15:35:42.449Z,1.40
2023-05-13T15:38:10.681Z,1.55
2023-05-13T15:40:38.477Z,1.50
2023-05-13T15:43:05.480Z,1.45
2023-05-13T15:45:32.508Z,1.65
2023-05-13T15:47:59.547Z,1.70
2023-05-13T15:50:27.372Z,1.70
2023-05-13T15:52:54.653Z,2.05
2023-05-13T15:55:22.134Z,1.40
2023-05-13T15:57:50.463Z,1.15
2023-05-13T16:00:18.528Z,1.63
2023-05-13T16:02:45.600Z,1.45
2023-05-13T16:05:15.200Z,1.40
2023-05-13T16:07:42.502Z,1.38
2023-05-13T16:10:09.924Z,1.20
2023-05-13T16:12:37.482Z,1.48
2023-05-13T16:15:04.802Z,1.77
2023-05-13T16:17:31.898Z,1.70
2023-05-13T16:19:59.699Z,1.52
2023-05-13T16:22:28.934Z,1.83
2023-05-13T16:24:59.534Z,1.55
2023-05-13T16:27:28.168Z,1.60
2023-05-13T16:29:56.235Z,1.67
2023-05-13T16:32:23.737Z,1.50
2023-05-13T16:34:52.045Z,1.40
2023-05-13T16:37:19.130Z,1.42
2023-05-13T16:39:46.719Z,1.13
2023-05-13T16:42:13.819Z,1.30
2023-05-13T16:44:40.989Z,1.35
2023-05-13T16:47:11.018Z,1.88
2023-05-13T16:49:38.265Z,2.35
2023-05-13T16:52:06.165Z,1.52
2023-05-13T16:54:34.133Z,2.13
2023-05-13T16:57:01.260Z,1.77
2023-05-13T16:59:28.589Z,1.70
2023-05-13T17:01:55.758Z,1.77
2023-05-13T17:04:22.898Z,1.65
2023-05-13T17:06:49.956Z,1.30
2023-05-13T17:09:17.124Z,1.40
2023-05-13T17:11:44.218Z,1.30
2023-05-13T17:14:11.336Z,1.35
2023-05-13T17:16:38.654Z,1.60
2023-05-13T17:19:05.833Z,1.40
2023-05-13T17:21:32.873Z,1.35
2023-05-13T17:24:00.168Z,1.67
2023-05-13T17:26:27.745Z,1.20
2023-05-13T17:28:54.843Z,1.13
2023-05-13T17:31:22.523Z,1.33
2023-05-13T17:33:49.725Z,1.58
2023-05-13T17:36:16.775Z,1.90
2023-05-13T17:38:44.120Z,1.67
2023-05-13T17:41:11.276Z,1.60
2023-05-13T17:43:38.341Z,1.23
2023-05-13T17:46:05.463Z,1.35
2023-05-13T17:48:33.126Z,1.10
2023-05-13T17:51:00.377Z,1.38
2023-05-13T17:53:27.520Z,3.00
2023-05-13T17:55:54.609Z,1.42
2023-05-13T17:58:21.737Z,1.20
2023-05-13T18:00:48.965Z,1.35
2023-05-13T18:03:16.300Z,1.25
2023-05-13T18:05:43.425Z,1.70
2023-05-13T18:08:10.479Z,1.33
2023-05-13T18:10:37.500Z,1.48
2023-05-13T18:13:04.568Z,1.30
2023-05-13T18:15:31.978Z,1.55
2023-05-13T18:17:59.131Z,1.58
2023-05-13T18:20:26.441Z,1.77
2023-05-13T18:22:53.490Z,1.50
2023-05-13T18:25:20.576Z,1.98
2023-05-13T18:27:50.013Z,1.70
2023-05-13T18:30:18.218Z,1.75
2023-05-13T18:32:45.653Z,1.55
2023-05-13T18:35:12.852Z,1.40
2023-05-13T18:37:39.932Z,1.60
2023-05-13T18:40:07.643Z,2.10
2023-05-13T18:42:34.642Z,2.53
2023-05-13T18:45:01.778Z,2.80
2023-05-13T18:47:28.853Z,3.10
2023-05-13T18:49:56.014Z,3.53
2023-05-13T18:52:23.074Z,3.53
2023-05-13T18:54:50.083Z,3.17
2023-05-13T18:57:17.814Z,2.97
2023-05-13T18:59:44.850Z,2.50
2023-05-13T19:02:11.933Z,2.78
2023-05-13T19:04:39.021Z,2.50
2023-05-13T19:07:06.108Z,3.03
2023-05-13T19:09:35.612Z,2.28
2023-05-13T19:12:02.759Z,2.45
2023-05-13T19:14:29.803Z,2.53
2023-05-13T19:16:57.013Z,2.00
2023-05-13T19:19:24.400Z,2.38
2023-05-13T19:21:51.418Z,2.33
2023-05-13T19:24:18.446Z,2.78
2023-05-13T19:26:45.564Z,3.28
2023-05-13T19:29:12.783Z,3.20
2023-05-13T19:31:40.270Z,2.60
2023-05-13T19:34:07.583Z,2.40
2023-05-13T19:36:34.670Z,2.85
2023-05-13T19:39:01.870Z,3.40
2023-05-13T19:41:28.976Z,3.05
2023-05-13T19:43:56.504Z,4.85
2023-05-13T19:46:23.607Z,3.55
2023-05-13T19:48:50.666Z,3.88
2023-05-13T19:51:18.100Z,3.92
2023-05-13T19:53:45.180Z,3.22
2023-05-13T19:56:12.219Z,3.80
2023-05-13T19:58:39.209Z,3.88
2023-05-13T20:01:06.254Z,3.60
2023-05-13T20:03:33.377Z,3.40
2023-05-13T20:06:01.591Z,3.42
2023-05-13T20:08:31.415Z,4.18
2023-05-13T20:10:58.738Z,3.88
2023-05-13T20:13:26.046Z,4.13
2023-05-13T20:15:53.151Z,4.13
2023-05-13T20:18:20.211Z,4.35
2023-05-13T20:20:47.924Z,4.15
2023-05-13T20:23:14.975Z,4.32
2023-05-13T20:25:42.099Z,4.25
2023-05-13T20:28:09.096Z,4.53
2023-05-13T20:30:36.313Z,4.57
2023-05-13T20:33:03.901Z,4.45
2023-05-13T20:35:30.926Z,5.55
2023-05-13T20:37:58.490Z,5.57
2023-05-13T20:40:25.602Z,5.40
2023-05-13T20:42:52.713Z,6.85
2023-05-13T20:45:19.791Z,6.75
2023-05-13T20:47:46.827Z,6.13
2023-05-13T20:50:14.006Z,5.40
2023-05-13T20:52:41.407Z,4.80
2023-05-13T20:55:09.009Z,4.18
2023-05-13T20:57:36.058Z,5.32
2023-05-13T21:00:03.388Z,4.35
2023-05-13T21:02:30.815Z,4.90
2023-05-13T21:04:57.948Z,4.72
2023-05-13T21:07:25.113Z,5.03
2023-05-13T21:09:52.253Z,5.13
2023-05-13T21:12:19.258Z,5.10
2023-05-13T21:14:46.286Z,5.30
2023-05-13T21:17:13.263Z,5.70
2023-05-13T21:19:40.488Z,7.60
2023-05-13T21:22:07.499Z,6.32
2023-05-13T21:24:34.525Z,5.93
2023-05-13T21:27:01.518Z,6.03
2023-05-13T21:29:30.086Z,6.07
2023-05-13T21:31:57.242Z,5.97
2023-05-13T21:34:24.623Z,4.63
2023-05-13T21:36:52.161Z,4.93
2023-05-13T21:39:19.168Z,4.55
2023-05-13T21:41:47.350Z,4.93
2023-05-13T21:44:14.381Z,5.05
2023-05-13T21:46:41.426Z,5.38
2023-05-13T21:49:08.555Z,4.40
2023-05-13T21:51:35.706Z,4.28
2023-05-13T21:54:02.770Z,4.25
2023-05-13T21:56:29.751Z,3.83
2023-05-13T21:58:56.815Z,4.18
2023-05-13T22:01:23.999Z,4.50
2023-05-13T22:03:51.069Z,4.13
2023-05-13T22:06:18.274Z,5.60
2023-05-13T22:08:45.640Z,4.78
2023-05-13T22:11:12.682Z,5.35
2023-05-13T22:13:39.737Z,5.32
2023-05-13T22:16:06.935Z,4.93
2023-05-13T22:18:34.293Z,4.82
2023-05-13T22:21:01.446Z,5.35
2023-05-13T22:23:28.452Z,6.03
2023-05-13T22:25:55.547Z,5.20
2023-05-13T22:28:22.708Z,5.32
2023-05-13T22:30:52.627Z,5.65
2023-05-13T22:33:19.701Z,5.30
2023-05-13T22:35:47.151Z,5.03
2023-05-13T22:38:14.199Z,4.78
2023-05-13T22:40:41.341Z,6.03
2023-05-13T22:43:08.363Z,4.22
2023-05-13T22:45:36.876Z,4.80
2023-05-13T22:48:04.016Z,5.70
2023-05-13T22:50:31.097Z,4.68
2023-05-13T22:52:58.100Z,4.68
2023-05-13T22:55:25.248Z,5.10
2023-05-13T22:57:52.281Z,4.57
2023-05-13T23:00:19.927Z,5.35
2023-05-13T23:02:46.955Z,4.55
2023-05-13T23:05:14.051Z,5.22
2023-05-13T23:07:41.135Z,5.75
2023-05-13T23:10:08.544Z,5.40
2023-05-13T23:12:35.520Z,5.95
2023-05-13T23:15:02.837Z,5.68
2023-05-13T23:17:30.019Z,5.15
2023-05-13T23:19:57.163Z,4.75
2023-05-13T23:22:24.127Z,5.85
2023-05-13T23:24:51.139Z,4.97
2023-05-13T23:27:18.116Z,4.85
2023-05-13T23:29:45.186Z,5.25
2023-05-13T23:32:12.316Z,5.93
2023-05-13T23:34:39.360Z,5.07
2023-05-13T23:37:06.338Z,4.95
2023-05-13T23:39:33.344Z,5.43
2023-05-13T23:42:00.418Z,5.50
2023-05-13T23:44:27.455Z,5.35
2023-05-13T23:46:54.504Z,5.00
2023-05-13T23:49:21.511Z,5.80
2023-05-13T23:51:48.871Z,5.90
2023-05-13T23:54:16.540Z,6.15
2023-05-13T23:56:43.616Z,5.38
2023-05-13T23:59:10.774Z,5.22
